createdAt,value
2023-01-19T00:01:58.998Z,20.4
2023-01-19T00:07:21.727Z,20.4
2023-01-19T00:12:44.577Z,20.4
2023-01-19T00:18:10.536Z,20.3
2023-01-19T00:23:02.409Z,20.4
2023-01-19T00:28:25.309Z,20.3
2023-01-19T00:33:48.410Z,20.3
2023-01-19T00:39:11.459Z,20.3
2023-01-19T00:44:32.894Z,20.3
2023-01-19T00:49:55.852Z,20.3
2023-01-19T00:55:19.299Z,20.3
2023-01-19T01:00:41.875Z,20.3
2023-01-19T01:06:20.022Z,20.3
2023-01-19T01:11:26.612Z,20.3
2023-01-19T01:17:23.539Z,20.3
2023-01-19T01:22:47.090Z,20.3
2023-01-19T01:28:12.662Z,20.3
2023-01-19T01:33:57.350Z,20.2
2023-01-19T01:39:19.589Z,20.2
2023-01-19T01:44:26.127Z,20.2
2023-01-19T01:49:49.187Z,20.2
2023-01-19T01:55:25.504Z,20.2
2023-01-19T02:00:32.289Z,20.2
2023-01-19T02:05:57.778Z,20.2
2023-01-19T02:11:21.046Z,20.2
2023-01-19T02:16:43.369Z,20.2
2023-01-19T02:21:49.854Z,20.1
2023-01-19T02:27:13.109Z,20.2
2023-01-19T02:32:35.596Z,20.1
2023-01-19T02:37:58.771Z,20.1
2023-01-19T02:43:21.977Z,20.1
2023-01-19T02:48:44.454Z,20.1
2023-01-19T02:54:07.663Z,20.1
2023-01-19T02:59:30.486Z,20.1
2023-01-19T03:04:53.563Z,20.1
2023-01-19T03:10:00.208Z,20.1
2023-01-19T03:15:08.999Z,20.1
2023-01-19T03:20:31.708Z,20.1
2023-01-19T03:25:54.178Z,20.1
2023-01-19T03:31:17.605Z,20.1
2023-01-19T03:36:39.745Z,20.1
2023-01-19T03:41:46.651Z,20.1
2023-01-19T03:47:10.166Z,20.1
2023-01-19T03:52:32.716Z,20.1
2023-01-19T03:57:54.732Z,20.1
2023-01-19T04:03:18.339Z,20.1
2023-01-19T04:08:40.938Z,20.1
2023-01-19T04:14:02.827Z,20.1
2023-01-19T04:19:26.002Z,20.1
2023-01-19T04:24:49.490Z,20.1
2023-01-19T04:30:12.147Z,20.1
2023-01-19T04:35:35.567Z,20
2023-01-19T04:40:45.073Z,20.1
2023-01-19T04:46:07.810Z,20.1
2023-01-19T04:51:16.827Z,20
2023-01-19T04:56:24.440Z,20.1
2023-01-19T05:01:47.324Z,20.1
2023-01-19T05:07:10.632Z,20.1
2023-01-19T05:12:17.029Z,20.1
2023-01-19T05:17:24.032Z,20.1
2023-01-19T05:22:49.541Z,20
2023-01-19T05:27:57.065Z,20
2023-01-19T05:33:05.382Z,20
2023-01-19T05:38:51.452Z,20
2023-01-19T05:44:14.938Z,20
2023-01-19T05:49:38.088Z,20
2023-01-19T05:55:01.014Z,19.9
2023-01-19T06:00:23.869Z,20
2023-01-19T06:05:47.176Z,20
2023-01-19T06:11:13.120Z,20
2023-01-19T06:16:19.771Z,20
2023-01-19T06:21:42.685Z,20
2023-01-19T06:27:07.429Z,19.9
2023-01-19T06:32:30.123Z,19.9
2023-01-19T06:37:53.030Z,19.9
2023-01-19T06:43:16.106Z,19.9
2023-01-19T06:48:38.721Z,19.9
2023-01-19T06:53:46.228Z,19.9
2023-01-19T06:59:15.478Z,19.9
2023-01-19T07:05:02.976Z,19.9
2023-01-19T07:10:27.216Z,19.9
2023-01-19T07:16:50.013Z,19.9
2023-01-19T07:22:13.178Z,19.9
2023-01-19T07:27:35.491Z,19.9
2023-01-19T07:32:59.253Z,19.8
2023-01-19T07:38:22.064Z,19.9
2023-01-19T07:43:44.948Z,19.8
2023-01-19T07:49:07.715Z,19.8
2023-01-19T07:54:29.975Z,19.8
2023-01-19T07:59:52.476Z,18.3
2023-01-19T08:05:17.239Z,41.9
2023-01-19T08:10:40.030Z,42.1
2023-01-19T08:15:47.178Z,34.5
2023-01-19T08:21:10.501Z,31.9
2023-01-19T08:26:35.345Z,35.3
2023-01-19T08:31:55.289Z,45.6
2023-01-19T08:37:18.943Z,44.2
2023-01-19T08:42:41.329Z,40.9
2023-01-19T08:48:13.029Z,40.8
2023-01-19T08:53:36.117Z,41.9
2023-01-19T08:59:08.385Z,43.3
2023-01-19T09:04:17.561Z,44.6
2023-01-19T09:09:26.053Z,45.5
2023-01-19T09:14:48.216Z,46.2
2023-01-19T09:20:11.668Z,47.3
2023-01-19T09:25:34.813Z,48.3
2023-01-19T09:30:57.451Z,48.9
2023-01-19T09:36:20.677Z,49.5
2023-01-19T09:41:44.684Z,49.9
2023-01-19T09:47:07.521Z,50.3
2023-01-19T09:52:30.324Z,50.8
2023-01-19T09:57:53.556Z,52.1
2023-01-19T10:03:20.126Z,52.9
2023-01-19T10:08:41.898Z,53.3
2023-01-19T10:14:16.600Z,52.9
2023-01-19T10:19:23.781Z,52.7
2023-01-19T10:24:50.046Z,53.8
2023-01-19T10:30:12.883Z,54
2023-01-19T10:35:37.497Z,54.5
2023-01-19T10:41:01.837Z,55.1
2023-01-19T10:46:10.233Z,53.8
2023-01-19T10:51:33.115Z,46.3
2023-01-19T10:56:25.201Z,42.4
2023-01-19T11:01:16.890Z,39.5
2023-01-19T11:06:25.444Z,36.9
2023-01-19T11:11:48.141Z,35
2023-01-19T11:17:10.522Z,33.3
2023-01-19T11:22:33.149Z,31.9
2023-01-19T11:27:55.284Z,30.8
2023-01-19T11:33:19.480Z,29.7
2023-01-19T11:38:42.145Z,28.9
2023-01-19T11:44:16.448Z,28.2
2023-01-19T11:49:26.719Z,27.5
2023-01-19T11:54:34.654Z,27
2023-01-19T11:59:25.789Z,26.5
2023-01-19T12:04:33.953Z,26.1
2023-01-19T12:09:41.179Z,25.7
2023-01-19T12:15:03.704Z,25.4
2023-01-19T12:20:28.362Z,25
2023-01-19T12:25:54.893Z,24.8
2023-01-19T12:31:17.763Z,24.5
2023-01-19T12:36:26.761Z,24.3
2023-01-19T12:41:49.852Z,24.1
2023-01-19T12:47:13.002Z,23.9
2023-01-19T12:52:40.356Z,23.7
2023-01-19T12:58:04.594Z,23.6
2023-01-19T13:03:27.617Z,23.4
2023-01-19T13:08:50.553Z,23.3
2023-01-19T13:14:18.756Z,23.2
2023-01-19T13:19:41.202Z,23.1
2023-01-19T13:25:03.824Z,22.9
2023-01-19T13:30:26.536Z,22.8
2023-01-19T13:35:49.958Z,22.8
2023-01-19T13:41:13.277Z,22.7
2023-01-19T13:46:24.269Z,22.6
2023-01-19T13:51:49.550Z,22.5
2023-01-19T13:57:12.742Z,22.4
2023-01-19T14:02:37.791Z,22.4
2023-01-19T14:08:00.688Z,22.3
2023-01-19T14:13:32.625Z,22.3
2023-01-19T14:18:56.865Z,22.2
2023-01-19T14:24:19.762Z,22.1
2023-01-19T14:29:42.583Z,22.1
2023-01-19T14:35:05.689Z,22
2023-01-19T14:40:12.703Z,22
2023-01-19T14:45:35.993Z,21.9
2023-01-19T14:51:14.007Z,21.9
2023-01-19T14:56:36.264Z,21.9
2023-01-19T15:02:02.169Z,21.9
2023-01-19T15:07:35.511Z,21.8
2023-01-19T15:12:42.659Z,21.8
2023-01-19T15:18:05.614Z,21.8
2023-01-19T15:23:28.576Z,21.8
2023-01-19T15:28:36.495Z,21.7
2023-01-19T15:33:44.389Z,21.7
2023-01-19T15:38:52.948Z,21.6
2023-01-19T15:43:44.219Z,21.6
2023-01-19T15:48:37.080Z,21.6
2023-01-19T15:53:44.491Z,21.6
2023-01-19T15:58:36.798Z,21.6
2023-01-19T16:03:59.901Z,21.6
2023-01-19T16:09:25.710Z,21.5
2023-01-19T16:14:50.313Z,21.5
2023-01-19T16:20:14.787Z,21.5
2023-01-19T16:25:49.960Z,21.4
2023-01-19T16:30:57.564Z,21.4
2023-01-19T16:36:19.653Z,21.4
2023-01-19T16:41:29.547Z,21.4
2023-01-19T16:46:54.319Z,21.4
2023-01-19T16:52:16.430Z,21.3
2023-01-19T16:57:39.477Z,21.3
2023-01-19T17:02:47.687Z,21.3
2023-01-19T17:08:10.305Z,21.3
2023-01-19T17:13:33.415Z,21.2
2023-01-19T17:18:56.113Z,21.2
2023-01-19T17:24:02.822Z,21.2
2023-01-19T17:44:33.258Z,21.1
2023-01-19T17:59:26.101Z,21.1
2023-01-19T18:04:51.782Z,21.1
2023-01-19T18:10:17.726Z,21.1
2023-01-19T18:15:25.941Z,21.1
2023-01-19T18:20:50.588Z,21
2023-01-19T18:26:15.316Z,21
2023-01-19T18:31:24.372Z,21
2023-01-19T18:36:49.363Z,21
2023-01-19T18:42:15.551Z,20.9
2023-01-19T18:47:40.970Z,20.9
2023-01-19T18:53:16.432Z,20.9
2023-01-19T18:58:53.204Z,20.9
2023-01-19T19:04:35.506Z,20.9
2023-01-19T19:09:58.381Z,20.9
2023-01-19T19:15:33.869Z,20.9
2023-01-19T19:20:53.586Z,20.9
2023-01-19T19:26:12.881Z,20.8
2023-01-19T19:31:34.676Z,20.8
2023-01-19T19:36:56.097Z,20.8
2023-01-19T19:42:40.409Z,20.8
2023-01-19T19:48:18.772Z,20.8
2023-01-19T19:53:53.129Z,20.7
2023-01-19T19:59:31.636Z,20.7
2023-01-19T20:04:56.121Z,20.6
2023-01-19T20:10:37.574Z,20.6
2023-01-19T20:16:04.470Z,20.6
2023-01-19T20:21:44.471Z,20.6
2023-01-19T20:27:04.032Z,20.6
2023-01-19T20:32:22.039Z,20.5
2023-01-19T20:37:35.476Z,20.5
2023-01-19T20:43:04.410Z,20.4
2023-01-19T20:48:15.670Z,20.4
2023-01-19T20:53:10.355Z,20.4
2023-01-19T20:58:21.073Z,20.4
2023-01-19T21:03:37.566Z,20.4
2023-01-19T21:08:47.699Z,20.4
2023-01-19T21:14:00.757Z,20.4
2023-01-19T21:19:11.099Z,20.4
2023-01-19T21:24:11.777Z,20.4
2023-01-19T21:29:35.052Z,20.4
2023-01-19T21:34:27.691Z,20.4
2023-01-19T21:39:19.608Z,20.4
2023-01-19T21:44:27.247Z,20.4
2023-01-19T21:49:34.683Z,20.4
2023-01-19T21:54:41.945Z,20.4
2023-01-19T21:59:49.015Z,20.3
2023-01-19T22:05:23.257Z,20.3
2023-01-19T22:10:30.561Z,20.3
2023-01-19T22:15:55.060Z,20.3
2023-01-19T22:20:47.116Z,20.3
2023-01-19T22:25:39.133Z,20.3
2023-01-19T22:30:46.545Z,20.3
2023-01-19T22:36:09.919Z,20.3
2023-01-19T22:41:33.427Z,20.3
2023-01-19T22:46:58.390Z,20.3
2023-01-19T22:52:05.614Z,20.3
2023-01-19T22:57:28.568Z,20.3
2023-01-19T23:02:37.552Z,20.3
2023-01-19T23:08:00.184Z,20.2
2023-01-19T23:13:22.831Z,20.2
2023-01-19T23:18:14.227Z,20.2
2023-01-19T23:23:37.310Z,20.2
2023-01-19T23:28:44.836Z,20.1
2023-01-19T23:34:07.164Z,20.1
2023-01-19T23:39:29.900Z,20.1
2023-01-19T23:44:51.802Z,20.1
2023-01-19T23:49:58.997Z,20.1
2023-01-19T23:54:50.519Z,20.1
2023-01-19T23:59:41.840Z,20.1
